createdAt,value
2022-10-08T00:02:17.541Z,11.00
2022-10-08T00:05:19.338Z,9.50
2022-10-08T00:08:21.471Z,11.60
2022-10-08T00:11:31.789Z,11.80
2022-10-08T00:14:33.903Z,12.50
2022-10-08T00:17:35.659Z,12.70
2022-10-08T00:20:37.658Z,11.90
2022-10-08T00:23:39.332Z,14.50
2022-10-08T00:26:44.072Z,14.90
2022-10-08T00:29:47.193Z,13.10
2022-10-08T00:32:49.609Z,11.30
2022-10-08T00:35:51.874Z,11.60
2022-10-08T00:38:57.817Z,11.50
2022-10-08T00:42:00.335Z,11.60
2022-10-08T00:45:02.187Z,11.80
2022-10-08T00:48:04.368Z,12.20
2022-10-08T00:51:06.229Z,11.50
2022-10-08T00:54:08.206Z,10.70
2022-10-08T00:57:10.151Z,10.80
2022-10-08T01:00:20.647Z,11.20
2022-10-08T01:03:23.162Z,12.00
2022-10-08T01:06:29.986Z,12.60
2022-10-08T01:09:49.337Z,12.20
2022-10-08T01:13:16.930Z,12.20
2022-10-08T01:16:27.585Z,13.10
2022-10-08T01:19:48.984Z,13.60
2022-10-08T01:23:15.354Z,13.40
2022-10-08T01:26:46.063Z,11.70
2022-10-08T01:29:49.202Z,13.40
2022-10-08T01:32:57.686Z,13.20
2022-10-08T01:36:01.268Z,14.30
2022-10-08T01:39:07.928Z,14.80
2022-10-08T01:42:10.539Z,15.50
2022-10-08T01:45:19.134Z,13.00
2022-10-08T01:48:23.939Z,12.70
2022-10-08T01:51:32.574Z,13.80
2022-10-08T01:54:35.473Z,13.00
2022-10-08T01:57:38.480Z,11.80
2022-10-08T02:00:42.256Z,11.60
2022-10-08T02:04:04.053Z,11.50
2022-10-08T02:07:15.046Z,10.70
2022-10-08T02:10:19.968Z,9.20
2022-10-08T02:13:21.850Z,8.70
2022-10-08T02:16:29.229Z,11.00
2022-10-08T02:19:57.371Z,11.30
2022-10-08T02:23:14.343Z,12.70
2022-10-08T02:26:27.113Z,13.20
2022-10-08T02:29:36.045Z,13.30
2022-10-08T02:32:55.717Z,16.80
2022-10-08T02:35:59.866Z,14.90
2022-10-08T02:39:06.615Z,15.40
2022-10-08T02:42:11.569Z,16.00
2022-10-08T02:45:24.231Z,16.30
2022-10-08T02:48:32.112Z,16.50
2022-10-08T02:51:39.770Z,19.00
2022-10-08T02:54:43.506Z,17.50
2022-10-08T02:57:52.068Z,20.10
2022-10-08T03:00:59.717Z,17.90
2022-10-08T03:04:26.607Z,17.40
2022-10-08T03:07:32.220Z,16.60
2022-10-08T03:10:36.222Z,18.40
2022-10-08T03:13:41.037Z,18.60
2022-10-08T03:16:45.208Z,19.50
2022-10-08T03:19:47.222Z,19.50
2022-10-08T03:22:49.353Z,20.80
2022-10-08T03:25:51.422Z,21.30
2022-10-08T03:28:53.953Z,21.30
2022-10-08T03:31:55.743Z,21.00
2022-10-08T03:34:57.724Z,20.70
2022-10-08T03:37:59.632Z,20.10
2022-10-08T03:41:01.837Z,19.90
2022-10-08T03:44:03.780Z,19.00
2022-10-08T03:47:05.614Z,19.80
2022-10-08T03:50:07.865Z,19.50
2022-10-08T03:53:09.886Z,18.50
2022-10-08T03:56:14.891Z,19.60
2022-10-08T03:59:16.626Z,19.50
2022-10-08T04:02:18.455Z,21.70
2022-10-08T04:05:20.611Z,22.10
2022-10-08T04:08:22.895Z,20.00
2022-10-08T04:11:24.611Z,16.80
2022-10-08T04:14:26.410Z,16.90
2022-10-08T04:17:28.201Z,16.70
2022-10-08T04:20:29.971Z,15.10
2022-10-08T04:23:33.663Z,16.00
2022-10-08T04:26:35.582Z,16.10
2022-10-08T04:29:37.283Z,16.80
2022-10-08T04:35:40.673Z,16.70
2022-10-08T04:38:43.779Z,20.70
2022-10-08T04:41:45.698Z,19.10
2022-10-08T04:44:47.596Z,21.30
2022-10-08T04:47:49.354Z,20.40
2022-10-08T05:00:18.522Z,20.90
2022-10-08T05:03:21.004Z,25.30
2022-10-08T05:09:25.654Z,20.40
2022-10-08T05:12:27.361Z,22.40
2022-10-08T05:18:32.757Z,33.00
2022-10-08T05:21:34.439Z,38.50
2022-10-08T05:24:36.675Z,30.30
2022-10-08T05:27:38.398Z,27.40
2022-10-08T05:30:40.097Z,28.50
2022-10-08T05:36:43.500Z,30.40
2022-10-08T05:39:45.837Z,30.70
2022-10-08T05:42:47.864Z,37.70
2022-10-08T05:45:51.530Z,51.00
2022-10-08T05:48:54.667Z,52.60
2022-10-08T05:51:56.409Z,49.20
2022-10-08T05:54:58.185Z,49.40
2022-10-08T05:58:00.085Z,50.40
2022-10-08T06:01:04.479Z,44.90
2022-10-08T06:04:08.733Z,45.80
2022-10-08T06:07:10.925Z,45.00
2022-10-08T06:10:13.210Z,37.70
2022-10-08T06:13:15.014Z,31.40
2022-10-08T06:16:16.871Z,30.50
2022-10-08T06:19:18.677Z,25.50
2022-10-08T06:22:20.677Z,22.70
2022-10-08T06:25:22.447Z,21.60
2022-10-08T06:28:24.341Z,21.30
2022-10-08T06:31:26.183Z,19.60
2022-10-08T06:34:27.992Z,19.20
2022-10-08T06:37:29.694Z,19.10
2022-10-08T06:40:38.994Z,17.80
2022-10-08T06:43:40.989Z,16.60
2022-10-08T06:46:43.395Z,17.20
2022-10-08T06:49:45.358Z,17.40
2022-10-08T06:52:47.475Z,16.70
2022-10-08T06:55:49.465Z,17.80
2022-10-08T06:58:52.004Z,21.50
2022-10-08T07:01:54.004Z,21.30
2022-10-08T07:04:55.733Z,20.40
2022-10-08T07:07:57.422Z,18.80
2022-10-08T07:11:12.234Z,19.70
2022-10-08T07:14:14.055Z,18.80
2022-10-08T07:17:16.017Z,20.50
2022-10-08T07:20:18.429Z,22.70
2022-10-08T07:23:20.184Z,21.50
2022-10-08T07:26:24.746Z,21.30
2022-10-08T07:29:26.669Z,20.80
2022-10-08T07:32:28.661Z,23.30
2022-10-08T07:35:30.508Z,24.40
2022-10-08T07:38:32.287Z,27.40
2022-10-08T07:41:35.258Z,24.10
2022-10-08T07:44:37.419Z,24.90
2022-10-08T07:47:39.151Z,23.90
2022-10-08T07:50:40.906Z,25.70
2022-10-08T07:53:43.733Z,26.30
2022-10-08T07:56:46.068Z,24.10
2022-10-08T07:59:47.831Z,26.20
2022-10-08T08:02:49.673Z,25.00
2022-10-08T08:05:54.823Z,22.90
2022-10-08T08:08:56.973Z,23.90
2022-10-08T08:11:58.667Z,21.90
2022-10-08T08:15:00.390Z,21.80
2022-10-08T08:18:02.819Z,21.10
2022-10-08T08:21:07.793Z,21.00
2022-10-08T08:24:13.751Z,21.30
2022-10-08T08:27:15.643Z,20.10
2022-10-08T08:30:17.480Z,19.60
2022-10-08T08:33:19.168Z,17.80
2022-10-08T08:36:25.107Z,17.00
2022-10-08T08:39:28.167Z,15.90
2022-10-08T08:42:49.129Z,16.90
2022-10-08T08:45:51.303Z,15.80
2022-10-08T08:48:55.796Z,15.90
2022-10-08T08:51:59.257Z,18.60
2022-10-08T08:55:01.820Z,16.00
2022-10-08T08:58:12.475Z,15.80
2022-10-08T09:01:42.549Z,14.40
2022-10-08T09:04:48.041Z,13.20
2022-10-08T09:07:54.393Z,12.90
2022-10-08T09:11:04.099Z,12.50
2022-10-08T09:14:37.990Z,12.30
2022-10-08T09:17:41.539Z,10.60
2022-10-08T09:20:44.558Z,13.10
2022-10-08T09:23:46.910Z,11.60
2022-10-08T09:26:48.859Z,9.60
2022-10-08T09:29:50.692Z,7.90
2022-10-08T09:32:53.631Z,7.90
2022-10-08T09:35:55.686Z,8.10
2022-10-08T09:38:58.843Z,7.20
2022-10-08T09:42:20.197Z,7.30
2022-10-08T09:45:42.950Z,7.80
2022-10-08T09:48:46.019Z,7.80
2022-10-08T09:51:49.406Z,7.10
2022-10-08T09:55:02.744Z,6.90
2022-10-08T09:58:05.560Z,6.60
2022-10-08T10:01:14.417Z,6.80
2022-10-08T10:04:37.466Z,7.50
2022-10-08T10:07:44.913Z,7.30
2022-10-08T10:10:46.947Z,6.90
2022-10-08T10:13:50.178Z,6.70
2022-10-08T10:16:56.749Z,6.50
2022-10-08T10:20:20.442Z,5.90
2022-10-08T10:23:27.879Z,6.40
2022-10-08T10:26:34.020Z,6.30
2022-10-08T10:30:07.664Z,6.80
2022-10-08T10:33:15.849Z,6.30
2022-10-08T10:36:18.652Z,6.50
2022-10-08T10:39:38.822Z,6.50
2022-10-08T10:43:06.749Z,6.20
2022-10-08T10:46:32.740Z,5.60
2022-10-08T10:49:38.465Z,5.60
2022-10-08T10:53:23.933Z,5.30
2022-10-08T10:56:29.179Z,5.30
2022-10-08T10:59:49.067Z,5.10
2022-10-08T11:03:08.264Z,5.00
2022-10-08T11:06:24.127Z,4.70
2022-10-08T11:09:36.451Z,4.70
2022-10-08T11:12:56.881Z,4.90
2022-10-08T11:16:06.601Z,5.20
2022-10-08T11:19:33.407Z,5.10
2022-10-08T11:23:03.451Z,5.10
2022-10-08T11:26:25.674Z,5.20
2022-10-08T11:30:05.218Z,4.80
2022-10-08T11:33:12.686Z,4.70
2022-10-08T11:36:34.883Z,4.90
2022-10-08T11:39:55.855Z,5.00
2022-10-08T11:43:08.053Z,5.50
2022-10-08T11:46:31.531Z,5.50
2022-10-08T11:49:33.454Z,5.30
2022-10-08T11:52:35.745Z,5.30
2022-10-08T11:55:38.084Z,5.50
2022-10-08T11:58:39.791Z,5.80
2022-10-08T12:01:56.795Z,5.50
2022-10-08T12:05:23.660Z,5.40
2022-10-08T12:08:58.163Z,5.80
2022-10-08T12:12:12.883Z,5.50
2022-10-08T12:15:23.998Z,6.00
2022-10-08T12:18:26.454Z,5.60
2022-10-08T12:21:28.486Z,5.20
2022-10-08T12:24:39.549Z,5.10
2022-10-08T12:27:41.360Z,4.90
2022-10-08T12:30:55.031Z,5.20
2022-10-08T12:34:02.710Z,4.90
2022-10-08T12:37:20.188Z,4.90
2022-10-08T12:40:58.446Z,5.00
2022-10-08T12:44:06.660Z,5.00
2022-10-08T12:47:30.056Z,5.40
2022-10-08T12:50:49.692Z,5.20
2022-10-08T12:53:52.211Z,5.30
2022-10-08T12:56:53.984Z,5.10
2022-10-08T13:00:00.941Z,4.70
2022-10-08T13:03:11.670Z,5.30
2022-10-08T13:06:29.325Z,4.70
2022-10-08T13:09:36.386Z,5.10
2022-10-08T13:12:39.592Z,5.30
2022-10-08T13:15:42.163Z,5.40
2022-10-08T13:18:58.674Z,5.30
2022-10-08T13:22:08.816Z,5.40
2022-10-08T13:25:39.167Z,5.00
2022-10-08T13:28:59.329Z,5.20
2022-10-08T13:32:05.239Z,5.10
2022-10-08T13:35:20.806Z,5.80
2022-10-08T13:38:29.538Z,5.70
2022-10-08T13:41:31.256Z,6.10
2022-10-08T13:44:33.788Z,5.80
2022-10-08T13:47:35.519Z,5.90
2022-10-08T13:50:44.562Z,5.60
2022-10-08T13:53:46.390Z,6.40
2022-10-08T13:56:49.045Z,5.90
2022-10-08T13:59:51.240Z,12.00
2022-10-08T14:02:53.457Z,6.10
2022-10-08T14:05:55.579Z,7.00
2022-10-08T14:08:58.214Z,7.80
2022-10-08T14:12:02.023Z,7.50
2022-10-08T14:15:04.163Z,8.30
2022-10-08T14:18:06.377Z,7.80
2022-10-08T14:21:10.538Z,6.60
2022-10-08T14:24:12.535Z,6.40
2022-10-08T14:27:14.357Z,7.40
2022-10-08T14:30:16.373Z,6.50
2022-10-08T14:33:18.055Z,6.40
2022-10-08T14:36:22.190Z,6.70
2022-10-08T14:39:25.202Z,6.10
2022-10-08T14:42:26.880Z,6.10
2022-10-08T14:45:28.675Z,6.50
2022-10-08T14:48:30.491Z,6.60
2022-10-08T14:51:38.451Z,7.50
2022-10-08T14:54:40.215Z,7.50
2022-10-08T14:57:42.111Z,7.60
2022-10-08T15:00:44.015Z,7.30
2022-10-08T15:03:46.060Z,8.10
2022-10-08T15:06:48.301Z,7.80
2022-10-08T15:09:50.016Z,8.50
2022-10-08T15:12:51.809Z,8.70
2022-10-08T15:15:53.643Z,9.10
2022-10-08T15:18:55.347Z,9.10
2022-10-08T15:21:57.226Z,9.10
2022-10-08T15:24:59.011Z,9.70
2022-10-08T15:28:01.015Z,9.70
2022-10-08T15:31:09.146Z,10.70
2022-10-08T15:34:17.477Z,10.10
2022-10-08T15:37:19.315Z,9.40
2022-10-08T15:40:21.119Z,10.20
2022-10-08T15:43:32.278Z,10.80
2022-10-08T15:46:34.037Z,11.10
2022-10-08T15:49:37.109Z,12.70
2022-10-08T15:52:42.925Z,13.10
2022-10-08T15:55:57.521Z,13.80
2022-10-08T15:59:00.190Z,23.00
2022-10-08T16:02:02.571Z,19.80
2022-10-08T16:05:04.839Z,19.40
2022-10-08T16:08:09.454Z,20.30
2022-10-08T16:11:20.324Z,17.60
2022-10-08T16:14:24.476Z,20.80
2022-10-08T16:17:27.164Z,19.80
2022-10-08T16:20:29.004Z,18.90
2022-10-08T16:23:35.804Z,19.30
2022-10-08T16:26:40.074Z,17.30
2022-10-08T16:29:41.948Z,19.00
2022-10-08T16:32:43.598Z,16.90
2022-10-08T16:35:45.335Z,26.70
2022-10-08T16:38:47.281Z,23.30
2022-10-08T16:41:49.389Z,28.20
2022-10-08T16:44:51.146Z,25.10
2022-10-08T16:47:52.914Z,23.10
2022-10-08T16:50:55.015Z,24.20
2022-10-08T16:53:59.242Z,25.10
2022-10-08T16:57:01.816Z,20.50
2022-10-08T17:00:04.675Z,17.70
2022-10-08T17:03:08.086Z,18.70
2022-10-08T17:06:10.852Z,18.10
2022-10-08T17:09:13.205Z,23.40
2022-10-08T17:12:17.473Z,19.10
2022-10-08T17:15:22.837Z,21.30
2022-10-08T17:18:28.886Z,20.00
2022-10-08T17:21:32.298Z,22.80
2022-10-08T17:24:39.030Z,22.70
2022-10-08T17:27:43.974Z,20.60
2022-10-08T17:30:45.670Z,20.20
2022-10-08T17:33:47.565Z,19.10
2022-10-08T17:36:49.390Z,20.40
2022-10-08T17:39:51.215Z,20.60
2022-10-08T17:42:53.523Z,22.30
2022-10-08T17:45:55.337Z,24.80
2022-10-08T17:48:57.806Z,24.80
2022-10-08T17:51:59.545Z,24.70
2022-10-08T17:55:01.418Z,25.00
2022-10-08T17:58:03.226Z,27.20
2022-10-08T18:01:09.119Z,27.40
2022-10-08T18:04:12.974Z,25.80
2022-10-08T18:07:15.010Z,27.20
2022-10-08T18:10:16.755Z,27.40
2022-10-08T18:13:18.971Z,25.50
2022-10-08T18:16:21.887Z,26.50
2022-10-08T18:19:24.007Z,27.90
2022-10-08T18:22:26.124Z,27.20
2022-10-08T18:25:27.971Z,28.50
2022-10-08T18:28:29.857Z,31.60
2022-10-08T18:31:32.885Z,30.60
2022-10-08T18:34:34.708Z,31.00
2022-10-08T18:37:36.421Z,35.20
2022-10-08T18:40:38.320Z,37.00
2022-10-08T18:43:40.359Z,29.90
2022-10-08T18:46:45.269Z,29.10
2022-10-08T18:49:47.168Z,28.60
2022-10-08T18:52:49.400Z,28.40
2022-10-08T18:55:51.874Z,26.50
2022-10-08T18:58:53.847Z,26.50
2022-10-08T19:01:59.084Z,29.40
2022-10-08T19:05:01.340Z,29.90
2022-10-08T19:08:04.426Z,25.70
2022-10-08T19:11:14.980Z,31.30
2022-10-08T19:14:18.821Z,32.40
2022-10-08T19:17:20.747Z,33.60
2022-10-08T19:20:22.493Z,31.10
2022-10-08T19:23:24.413Z,31.00
2022-10-08T19:26:28.258Z,31.70
2022-10-08T19:29:33.475Z,31.00
2022-10-08T19:32:35.281Z,32.00
2022-10-08T19:35:37.023Z,29.10
2022-10-08T19:38:38.803Z,32.50
2022-10-08T19:41:41.349Z,29.60
2022-10-08T19:44:43.183Z,33.90
2022-10-08T19:47:44.955Z,33.80
2022-10-08T19:50:46.726Z,37.60
2022-10-08T19:53:49.141Z,40.00
2022-10-08T19:56:50.998Z,43.50
2022-10-08T19:59:52.757Z,44.80
2022-10-08T20:02:54.478Z,47.20
2022-10-08T20:05:56.752Z,50.00
2022-10-08T20:09:01.889Z,47.90
2022-10-08T20:12:03.759Z,46.20
2022-10-08T20:15:08.304Z,43.90
2022-10-08T20:18:11.440Z,41.80
2022-10-08T20:21:13.438Z,39.80
2022-10-08T20:24:16.413Z,41.20
2022-10-08T20:27:18.315Z,40.50
2022-10-08T20:30:20.110Z,40.80
2022-10-08T20:33:21.833Z,44.20
2022-10-08T20:36:24.685Z,44.50
2022-10-08T20:39:26.451Z,43.10
2022-10-08T20:42:29.092Z,43.30
2022-10-08T20:45:30.962Z,42.40
2022-10-08T20:48:34.275Z,41.70
2022-10-08T20:51:38.986Z,46.40
2022-10-08T20:54:40.742Z,61.20
2022-10-08T20:57:42.584Z,43.10
2022-10-08T21:00:47.883Z,40.80
2022-10-08T21:03:51.184Z,42.50
2022-10-08T21:06:53.338Z,41.10
2022-10-08T21:09:55.301Z,44.10
2022-10-08T21:12:57.150Z,45.30
2022-10-08T21:16:10.421Z,44.70
2022-10-08T21:19:15.074Z,43.60
2022-10-08T21:22:17.040Z,45.30
2022-10-08T21:25:18.893Z,44.90
2022-10-08T21:28:20.984Z,45.80
2022-10-08T21:31:23.328Z,45.30
2022-10-08T21:34:25.579Z,48.40
2022-10-08T21:37:27.298Z,44.90
2022-10-08T21:40:29.130Z,46.30
2022-10-08T21:43:31.395Z,44.70
2022-10-08T21:46:35.780Z,45.30
2022-10-08T21:49:37.554Z,45.70
2022-10-08T21:52:39.490Z,44.50
2022-10-08T21:55:41.160Z,45.70
2022-10-08T21:58:48.104Z,44.80
2022-10-08T22:01:51.666Z,45.60
2022-10-08T22:04:53.637Z,44.50
2022-10-08T22:07:55.453Z,44.80
2022-10-08T22:10:57.576Z,46.10
2022-10-08T22:13:59.397Z,45.80
2022-10-08T22:17:01.209Z,45.60
2022-10-08T22:20:03.595Z,47.20
2022-10-08T22:23:05.471Z,47.10
2022-10-08T22:26:10.560Z,50.00
2022-10-08T22:29:12.526Z,49.20
2022-10-08T22:32:14.365Z,49.60
2022-10-08T22:35:16.091Z,50.60
2022-10-08T22:38:17.974Z,50.00
2022-10-08T22:41:33.406Z,51.50
2022-10-08T22:44:35.181Z,49.30
2022-10-08T22:47:36.876Z,51.20
2022-10-08T22:50:39.386Z,51.80
2022-10-08T22:53:41.971Z,49.50
2022-10-08T22:56:43.722Z,49.80
2022-10-08T22:59:45.752Z,49.10
2022-10-08T23:02:47.791Z,48.40
2022-10-08T23:06:27.611Z,49.20
2022-10-08T23:09:29.735Z,52.30
2022-10-08T23:12:31.479Z,48.90
2022-10-08T23:15:33.226Z,50.70
2022-10-08T23:18:39.906Z,49.60
2022-10-08T23:21:44.332Z,49.80
2022-10-08T23:24:46.598Z,49.40
2022-10-08T23:27:48.515Z,48.80
2022-10-08T23:30:53.520Z,47.80
2022-10-08T23:33:56.095Z,47.00
2022-10-08T23:36:58.133Z,46.80
2022-10-08T23:40:00.131Z,45.00
2022-10-08T23:43:02.188Z,43.80
2022-10-08T23:46:05.942Z,44.90
2022-10-08T23:49:07.981Z,40.90
2022-10-08T23:52:09.740Z,39.80
2022-10-08T23:55:11.899Z,39.00
2022-10-08T23:58:14.420Z,36.50
